Terminal Aerodrome Forecast
Issued by NWS Jackson, KY

Home | Current Version | Previous Version | Text Only | Print | Product List | Glossary On
Versions: 1 2 3 4 5 6 7 8 9 10 11 12 13 14 15 16 17 18 19 20 21
000
FTUS43 KJKL 230500
TAFLOZ
TAF
KLOZ 230539Z 2306/2406 00000KT P6SM FEW035 SCT100
     FM230900 00000KT 4SM BR VCSH SCT020 BKN100
      TEMPO 2309/2312 2SM BR BKN015
     FM231500 VRB05KT P6SM SCT030 BKN100
     FM231800 30005KT P6SM VCTS BKN030CB BKN050=

USA.gov is the U.S. government's official web portal to all federal, state and local government web resources and services.